createdAt,value
2023-03-01T00:00:03.936Z,81.08
2023-03-01T00:01:03.921Z,81.36
2023-03-01T00:02:03.995Z,81.29
2023-03-01T00:03:03.947Z,81.04
2023-03-01T00:04:03.924Z,81.46
2023-03-01T00:05:03.899Z,81.04
2023-03-01T00:06:03.865Z,80.94
2023-03-01T00:07:03.857Z,81.08
2023-03-01T00:08:03.854Z,81.04
2023-03-01T00:09:03.842Z,81.04
2023-03-01T00:10:03.828Z,81.26
2023-03-01T00:11:03.929Z,81.57
2023-03-01T00:12:03.799Z,81.15
2023-03-01T00:13:03.794Z,80.83
2023-03-01T00:14:03.784Z,80.94
2023-03-01T00:15:03.779Z,81.08
2023-03-01T00:16:03.762Z,81.19
2023-03-01T00:17:03.813Z,81.08
2023-03-01T00:18:03.757Z,81.29
2023-03-01T00:19:03.727Z,80.87
2023-03-01T00:20:03.735Z,80.87
2023-03-01T00:21:03.718Z,81.29
2023-03-01T00:22:03.696Z,81.50
2023-03-01T00:23:03.683Z,81.29
2023-03-01T00:24:03.678Z,81.71
2023-03-01T00:25:03.666Z,81.71
2023-03-01T00:26:03.651Z,81.60
2023-03-01T00:27:03.656Z,81.82
2023-03-01T00:28:03.630Z,81.92
2023-03-01T00:29:03.640Z,81.82
2023-03-01T00:30:03.623Z,81.60
2023-03-01T00:31:03.728Z,81.60
2023-03-01T00:32:03.630Z,81.82
2023-03-01T00:33:03.584Z,81.50
2023-03-01T00:34:03.581Z,81.40
2023-03-01T00:35:03.568Z,81.50
2023-03-01T00:36:03.563Z,81.71
2023-03-01T00:37:03.536Z,81.40
2023-03-01T00:38:03.529Z,81.71
2023-03-01T00:39:03.528Z,81.43
2023-03-01T00:40:03.515Z,81.64
2023-03-01T00:41:03.492Z,81.92
2023-03-01T00:42:03.480Z,81.92
2023-03-01T00:43:03.475Z,81.85
2023-03-01T00:44:03.483Z,82.06
2023-03-01T00:45:03.450Z,81.96
2023-03-01T00:46:03.470Z,81.71
2023-03-01T00:47:03.428Z,81.71
2023-03-01T00:48:03.419Z,81.85
2023-03-01T00:49:03.422Z,81.96
2023-03-01T00:50:03.433Z,81.96
2023-03-01T00:51:03.392Z,82.27
2023-03-01T00:52:03.415Z,81.75
2023-03-01T00:53:03.375Z,81.75
2023-03-01T00:54:03.359Z,81.68
2023-03-01T00:55:03.354Z,82.06
2023-03-01T00:56:03.339Z,81.64
2023-03-01T00:57:03.332Z,81.89
2023-03-01T00:58:03.312Z,81.75
2023-03-01T00:59:03.302Z,81.75
2023-03-01T01:00:03.294Z,81.54
2023-03-01T01:01:03.298Z,81.64
2023-03-01T01:02:03.266Z,81.79
2023-03-01T01:03:03.256Z,82.20
2023-03-01T01:04:03.248Z,82.31
2023-03-01T01:05:03.239Z,81.99
2023-03-01T01:06:03.247Z,82.10
2023-03-01T01:07:03.222Z,82.10
2023-03-01T01:08:03.224Z,82.14
2023-03-01T01:09:03.196Z,82.35
2023-03-01T01:10:03.175Z,82.14
2023-03-01T01:11:03.168Z,81.82
2023-03-01T01:12:03.163Z,81.76
2023-03-01T01:13:03.165Z,82.49
2023-03-01T01:14:03.138Z,83.22
2023-03-01T01:15:03.148Z,82.59
2023-03-01T01:16:03.189Z,83.71
2023-03-01T01:17:03.111Z,83.54
2023-03-01T01:18:03.090Z,83.81
2023-03-01T01:19:03.101Z,83.81
2023-03-01T01:20:03.068Z,84.13
2023-03-01T01:21:03.057Z,84.03
2023-03-01T01:22:03.052Z,83.81
2023-03-01T01:23:03.042Z,84.34
2023-03-01T01:24:03.054Z,84.23
2023-03-01T01:25:03.035Z,84.03
2023-03-01T01:26:03.007Z,84.13
2023-03-01T01:27:03.001Z,83.61
2023-03-01T01:28:02.983Z,83.81
2023-03-01T01:29:02.988Z,83.81
2023-03-01T01:30:02.984Z,83.71
2023-03-01T01:31:03.009Z,83.40
2023-03-01T01:32:03.053Z,83.57
2023-03-01T01:33:02.950Z,83.50
2023-03-01T01:34:02.931Z,83.81
2023-03-01T01:35:02.906Z,83.18
2023-03-01T01:36:02.900Z,83.18
2023-03-01T01:37:02.906Z,82.87
2023-03-01T01:38:02.876Z,82.87
2023-03-01T01:39:02.870Z,83.18
2023-03-01T01:40:02.872Z,83.40
2023-03-01T01:41:02.837Z,82.70
2023-03-01T01:42:02.832Z,82.76
2023-03-01T01:43:02.838Z,83.29
2023-03-01T01:44:02.812Z,83.12
2023-03-01T01:45:02.805Z,83.18
2023-03-01T01:46:02.816Z,83.12
2023-03-01T01:47:02.778Z,82.91
2023-03-01T01:48:02.796Z,83.61
2023-03-01T01:49:02.751Z,83.75
2023-03-01T01:50:02.759Z,83.61
2023-03-01T01:51:02.734Z,83.61
2023-03-01T01:52:02.739Z,83.61
2023-03-01T01:53:02.709Z,83.61
2023-03-01T01:54:02.714Z,83.86
2023-03-01T01:55:02.696Z,83.71
2023-03-01T01:56:02.706Z,83.96
2023-03-01T01:57:02.681Z,83.86
2023-03-01T01:58:02.664Z,83.96
2023-03-01T01:59:02.662Z,83.86
2023-03-01T02:00:02.635Z,83.86
2023-03-01T02:01:02.635Z,83.96
2023-03-01T02:02:02.615Z,84.06
2023-03-01T02:03:09.822Z,83.86
2023-03-01T02:04:02.592Z,83.75
2023-03-01T02:05:02.604Z,83.54
2023-03-01T02:06:02.583Z,83.86
2023-03-01T02:07:02.580Z,83.22
2023-03-01T02:08:02.578Z,83.44
2023-03-01T02:09:02.589Z,83.54
2023-03-01T02:10:02.569Z,83.96
2023-03-01T02:11:02.593Z,83.64
2023-03-01T02:12:02.600Z,84.17
2023-03-01T02:13:02.528Z,84.06
2023-03-01T02:14:02.498Z,83.75
2023-03-01T02:15:02.490Z,83.75
2023-03-01T02:16:02.526Z,83.44
2023-03-01T02:17:02.454Z,82.95
2023-03-01T02:18:02.470Z,83.68
2023-03-01T02:19:02.441Z,83.72
2023-03-01T02:20:02.447Z,83.93
2023-03-01T02:21:02.412Z,84.67
2023-03-01T02:22:02.477Z,84.73
2023-03-01T02:23:02.391Z,85.19
2023-03-01T02:24:02.392Z,84.73
2023-03-01T02:25:02.382Z,85.05
2023-03-01T02:26:02.383Z,84.63
2023-03-01T02:27:02.349Z,84.52
2023-03-01T02:28:02.370Z,84.84
2023-03-01T02:29:02.328Z,84.73
2023-03-01T02:30:02.321Z,84.94
2023-03-01T02:31:02.351Z,84.84
2023-03-01T02:32:02.344Z,84.84
2023-03-01T02:33:02.284Z,84.73
2023-03-01T02:34:02.272Z,84.94
2023-03-01T02:35:02.273Z,84.73
2023-03-01T02:36:02.254Z,84.63
2023-03-01T02:37:02.254Z,84.63
2023-03-01T02:38:02.241Z,84.42
2023-03-01T02:39:02.219Z,84.84
2023-03-01T02:40:02.224Z,84.73
2023-03-01T02:41:02.198Z,84.84
2023-03-01T02:42:02.188Z,84.63
2023-03-01T02:43:02.206Z,84.69
2023-03-01T02:44:02.190Z,84.69
2023-03-01T02:45:02.165Z,84.80
2023-03-01T02:46:02.154Z,84.94
2023-03-01T02:47:02.262Z,84.73
2023-03-01T02:48:02.134Z,85.05
2023-03-01T02:49:02.136Z,85.25
2023-03-01T02:50:02.113Z,84.52
2023-03-01T02:51:02.091Z,84.63
2023-03-01T02:52:02.078Z,84.42
2023-03-01T02:53:02.073Z,84.52
2023-03-01T02:54:02.060Z,84.56
2023-03-01T02:55:02.054Z,84.56
2023-03-01T02:56:02.052Z,85.36
2023-03-01T02:57:02.038Z,84.84
2023-03-01T02:58:02.032Z,84.63
2023-03-01T02:59:02.003Z,84.84
2023-03-01T03:00:02.021Z,84.98
2023-03-01T03:01:02.141Z,84.98
2023-03-01T03:02:01.980Z,84.88
2023-03-01T03:03:01.976Z,85.19
2023-03-01T03:04:01.996Z,84.88
2023-03-01T03:05:01.956Z,84.63
2023-03-01T03:06:01.944Z,84.77
2023-03-01T03:07:01.916Z,85.19
2023-03-01T03:08:02.007Z,85.19
2023-03-01T03:09:01.914Z,85.25
2023-03-01T03:10:01.890Z,85.19
2023-03-01T03:11:01.879Z,84.63
2023-03-01T03:12:01.903Z,84.73
2023-03-01T03:13:01.904Z,84.88
2023-03-01T03:14:01.845Z,85.19
2023-03-01T03:15:01.847Z,84.84
2023-03-01T03:16:01.926Z,84.67
2023-03-01T03:17:01.830Z,84.88
2023-03-01T03:18:01.803Z,84.56
2023-03-01T03:19:01.796Z,84.77
2023-03-01T03:20:01.788Z,84.81
2023-03-01T03:21:01.767Z,85.13
2023-03-01T03:22:01.769Z,85.33
2023-03-01T03:23:01.781Z,85.44
2023-03-01T03:24:01.873Z,85.13
2023-03-01T03:25:01.721Z,84.49
2023-03-01T03:26:01.713Z,85.13
2023-03-01T03:27:01.714Z,84.67
2023-03-01T03:28:01.694Z,84.60
2023-03-01T03:29:01.714Z,84.81
2023-03-01T03:30:01.684Z,84.28
2023-03-01T03:31:01.679Z,84.39
2023-03-01T03:32:01.731Z,84.39
2023-03-01T03:33:01.639Z,84.49
2023-03-01T03:34:01.649Z,85.33
2023-03-01T03:35:01.641Z,84.91
2023-03-01T03:36:01.627Z,84.81
2023-03-01T03:37:01.598Z,85.23
2023-03-01T03:38:01.611Z,85.23
2023-03-01T03:39:01.568Z,84.70
2023-03-01T03:40:01.585Z,84.70
2023-03-01T03:41:01.562Z,85.33
2023-03-01T03:42:01.572Z,85.02
2023-03-01T03:43:01.548Z,85.33
2023-03-01T03:44:01.523Z,85.02
2023-03-01T03:45:01.520Z,85.23
2023-03-01T03:46:01.602Z,84.91
2023-03-01T03:47:01.503Z,85.44
2023-03-01T03:48:01.512Z,85.65
2023-03-01T03:49:01.461Z,85.75
2023-03-01T03:50:01.471Z,85.75
2023-03-01T03:51:01.474Z,85.75
2023-03-01T03:52:01.439Z,85.96
2023-03-01T03:53:01.448Z,85.65
2023-03-01T03:54:01.415Z,85.55
2023-03-01T03:55:01.398Z,85.44
2023-03-01T03:56:01.399Z,85.55
2023-03-01T03:57:01.391Z,85.58
2023-03-01T03:58:01.373Z,85.44
2023-03-01T03:59:01.356Z,85.44
2023-03-01T04:00:01.358Z,85.37
2023-03-01T04:01:01.344Z,85.75
2023-03-01T04:02:01.326Z,85.55
2023-03-01T04:03:01.413Z,85.65
2023-03-01T04:04:01.326Z,85.55
2023-03-01T04:05:01.296Z,85.55
2023-03-01T04:06:01.288Z,85.58
2023-03-01T04:07:01.276Z,85.27
2023-03-01T04:08:01.291Z,85.16
2023-03-01T04:09:01.246Z,85.69
2023-03-01T04:10:01.240Z,85.37
2023-03-01T04:11:01.231Z,85.79
2023-03-01T04:12:01.217Z,85.90
2023-03-01T04:13:01.207Z,85.79
2023-03-01T04:14:01.383Z,85.33
2023-03-01T04:15:01.199Z,86.53
2023-03-01T04:16:01.185Z,86.43
2023-03-01T04:17:01.162Z,86.11
2023-03-01T04:18:01.154Z,85.90
2023-03-01T04:19:01.137Z,85.79
2023-03-01T04:20:01.174Z,86.43
2023-03-01T04:21:01.127Z,86.53
2023-03-01T04:22:01.104Z,85.90
2023-03-01T04:23:01.111Z,85.79
2023-03-01T04:24:01.091Z,85.79
2023-03-01T04:25:01.072Z,85.90
2023-03-01T04:26:01.088Z,86.00
2023-03-01T04:27:01.068Z,85.94
2023-03-01T04:28:01.041Z,86.63
2023-03-01T04:29:01.042Z,86.32
2023-03-01T04:30:01.041Z,86.36
2023-03-01T04:31:01.012Z,86.43
2023-03-01T04:32:01.146Z,86.43
2023-03-01T04:33:01.011Z,86.32
2023-03-01T04:34:00.980Z,86.00
2023-03-01T04:35:00.965Z,86.00
2023-03-01T04:36:01.151Z,86.32
2023-03-01T04:37:00.949Z,86.32
2023-03-01T04:38:01.043Z,86.36
2023-03-01T04:39:00.942Z,86.57
2023-03-01T04:40:00.914Z,86.74
2023-03-01T04:41:00.914Z,86.78
2023-03-01T04:42:00.898Z,86.88
2023-03-01T04:43:00.889Z,86.99
2023-03-01T04:44:00.884Z,86.68
2023-03-01T04:45:00.867Z,86.88
2023-03-01T04:46:00.903Z,86.99
2023-03-01T04:47:00.840Z,86.99
2023-03-01T04:48:00.846Z,86.99
2023-03-01T04:49:00.820Z,86.57
2023-03-01T04:50:00.813Z,86.57
2023-03-01T04:51:00.793Z,86.63
2023-03-01T04:52:00.803Z,86.78
2023-03-01T04:53:00.771Z,86.68
2023-03-01T04:54:00.768Z,86.78
2023-03-01T04:55:00.760Z,86.46
2023-03-01T04:56:00.742Z,86.57
2023-03-01T04:57:00.743Z,85.35
2023-03-01T04:58:00.722Z,85.87
2023-03-01T04:59:00.720Z,85.73
2023-03-01T05:00:00.704Z,85.35
2023-03-01T05:01:00.698Z,85.77
2023-03-01T05:02:00.676Z,85.83
2023-03-01T05:03:00.747Z,86.15
2023-03-01T05:04:00.658Z,86.71
2023-03-01T05:05:00.664Z,86.68
2023-03-01T05:06:00.634Z,86.61
2023-03-01T05:07:00.620Z,86.46
2023-03-01T05:08:00.652Z,86.51
2023-03-01T05:09:00.617Z,86.46
2023-03-01T05:10:00.603Z,86.51
2023-03-01T05:11:00.610Z,86.51
2023-03-01T05:12:00.575Z,86.71
2023-03-01T05:13:00.553Z,86.08
2023-03-01T05:14:00.560Z,85.87
2023-03-01T05:15:00.535Z,85.97
2023-03-01T05:16:00.624Z,85.77
2023-03-01T05:17:00.520Z,85.66
2023-03-01T05:18:00.508Z,85.66
2023-03-01T05:19:00.522Z,85.24
2023-03-01T05:20:00.495Z,85.45
2023-03-01T05:21:00.483Z,85.77
2023-03-01T05:22:00.459Z,85.80
2023-03-01T05:23:00.463Z,85.55
2023-03-01T05:24:00.473Z,85.55
2023-03-01T05:25:00.461Z,85.77
2023-03-01T05:26:00.428Z,85.35
2023-03-01T05:27:00.432Z,85.55
2023-03-01T05:28:00.395Z,85.87
2023-03-01T05:29:01.083Z,85.77
2023-03-01T05:30:00.386Z,86.71
2023-03-01T05:31:00.399Z,85.87
2023-03-01T05:32:00.446Z,85.97
2023-03-01T05:33:00.353Z,86.51
2023-03-01T05:34:00.334Z,86.36
2023-03-01T05:35:00.336Z,86.40
2023-03-01T05:36:00.459Z,86.93
2023-03-01T05:37:00.310Z,86.93
2023-03-01T05:38:00.301Z,86.93
2023-03-01T05:39:00.306Z,86.82
2023-03-01T05:40:00.290Z,86.93
2023-03-01T05:41:00.255Z,86.71
2023-03-01T05:42:00.262Z,86.71
2023-03-01T05:43:00.261Z,86.93
2023-03-01T05:44:00.225Z,86.40
2023-03-01T05:45:00.229Z,86.82
2023-03-01T05:46:00.282Z,86.51
2023-03-01T05:47:00.197Z,86.71
2023-03-01T05:48:00.218Z,86.71
2023-03-01T05:49:00.182Z,86.71
2023-03-01T05:50:00.173Z,86.61
2023-03-01T05:51:00.147Z,86.40
2023-03-01T05:52:00.148Z,86.61
2023-03-01T05:53:00.134Z,86.51
2023-03-01T05:54:00.144Z,86.51
2023-03-01T05:55:00.121Z,86.46
2023-03-01T05:56:00.133Z,86.40
2023-03-01T05:57:00.100Z,86.61
2023-03-01T05:58:00.096Z,87.13
2023-03-01T05:59:00.089Z,86.88
2023-03-01T06:00:00.053Z,86.78
2023-03-01T06:01:00.048Z,86.61
2023-03-01T06:02:00.036Z,86.71
2023-03-01T06:03:00.042Z,86.46
2023-03-01T06:04:00.013Z,86.71
2023-03-01T06:05:00.172Z,86.71
2023-03-01T06:05:59.989Z,86.40
2023-03-01T06:06:59.990Z,86.40
2023-03-01T06:07:59.963Z,86.71
2023-03-01T06:08:59.959Z,86.40
2023-03-01T06:09:59.944Z,86.29
2023-03-01T06:10:59.970Z,86.51
2023-03-01T06:11:59.948Z,86.71
2023-03-01T06:12:59.930Z,86.40
2023-03-01T06:13:59.925Z,86.51
2023-03-01T06:14:59.908Z,86.61
2023-03-01T06:15:59.944Z,86.51
2023-03-01T06:16:59.882Z,86.40
2023-03-01T06:18:00.450Z,86.93
2023-03-01T06:18:59.920Z,86.96
2023-03-01T06:19:59.838Z,86.96
2023-03-01T06:20:59.825Z,86.54
2023-03-01T06:21:59.828Z,86.54
2023-03-01T06:22:59.826Z,86.96
2023-03-01T06:23:59.830Z,86.86
2023-03-01T06:24:59.785Z,86.96
2023-03-01T06:25:59.794Z,87.07
2023-03-01T06:26:59.768Z,86.22
2023-03-01T06:27:59.781Z,86.27
2023-03-01T06:28:59.761Z,86.47
2023-03-01T06:29:59.756Z,85.91
2023-03-01T06:30:59.734Z,86.27
2023-03-01T06:31:59.771Z,86.54
2023-03-01T06:32:59.713Z,86.86
2023-03-01T06:33:59.689Z,86.86
2023-03-01T06:34:59.729Z,86.65
2023-03-01T06:35:59.711Z,86.54
2023-03-01T06:36:59.659Z,87.07
2023-03-01T06:37:59.658Z,87.28
2023-03-01T06:38:59.642Z,87.35
2023-03-01T06:39:59.625Z,86.82
2023-03-01T06:40:59.631Z,87.03
2023-03-01T06:41:59.603Z,87.45
2023-03-01T06:42:59.604Z,87.03
2023-03-01T06:43:59.612Z,87.45
2023-03-01T06:44:59.569Z,87.24
2023-03-01T06:45:59.560Z,87.35
2023-03-01T06:46:59.598Z,86.65
2023-03-01T06:47:59.578Z,86.61
2023-03-01T06:48:59.531Z,86.76
2023-03-01T06:49:59.542Z,86.76
2023-03-01T06:50:59.505Z,86.86
2023-03-01T06:51:59.493Z,86.86
2023-03-01T06:52:59.498Z,86.33
2023-03-01T06:54:01.603Z,86.86
2023-03-01T06:54:59.466Z,86.65
2023-03-01T06:55:59.469Z,86.93
2023-03-01T06:56:59.450Z,87.03
2023-03-01T06:57:59.432Z,86.96
2023-03-01T06:58:59.434Z,87.07
2023-03-01T06:59:59.422Z,87.13
2023-03-01T07:00:59.404Z,87.24
2023-03-01T07:01:59.466Z,87.03
2023-03-01T07:02:59.403Z,87.35
2023-03-01T07:03:59.376Z,87.10
2023-03-01T07:04:59.354Z,87.30
2023-03-01T07:05:59.332Z,87.30
2023-03-01T07:06:59.334Z,87.24
2023-03-01T07:07:59.331Z,87.10
2023-03-01T07:08:59.324Z,87.41
2023-03-01T07:09:59.296Z,86.78
2023-03-01T07:10:59.307Z,87.41
2023-03-01T07:11:59.272Z,87.45
2023-03-01T07:12:59.298Z,86.99
2023-03-01T07:13:59.264Z,87.24
2023-03-01T07:14:59.256Z,87.66
2023-03-01T07:15:59.313Z,87.93
2023-03-01T07:16:59.224Z,87.93
2023-03-01T07:17:59.206Z,88.57
2023-03-01T07:18:59.789Z,88.57
2023-03-01T07:19:59.199Z,88.35
2023-03-01T07:20:59.184Z,88.78
2023-03-01T07:21:59.174Z,88.95
2023-03-01T07:22:59.175Z,88.95
2023-03-01T07:23:59.149Z,88.63
2023-03-01T07:24:59.147Z,88.63
2023-03-01T07:25:59.118Z,88.95
2023-03-01T07:26:59.112Z,88.95
2023-03-01T07:27:59.117Z,89.01
2023-03-01T07:28:59.103Z,89.12
2023-03-01T07:29:59.085Z,89.01
2023-03-01T07:30:59.073Z,88.91
2023-03-01T07:31:59.188Z,89.39
2023-03-01T07:32:59.229Z,89.29
2023-03-01T07:33:59.053Z,88.97
2023-03-01T07:34:59.043Z,88.76
2023-03-01T07:35:59.046Z,88.76
2023-03-01T07:36:59.002Z,88.82
2023-03-01T07:37:58.993Z,88.97
2023-03-01T07:38:58.999Z,89.04
2023-03-01T07:39:58.998Z,89.25
2023-03-01T07:40:58.964Z,89.21
2023-03-01T07:41:58.955Z,89.00
2023-03-01T07:42:58.951Z,88.68
2023-03-01T07:43:58.932Z,89.21
2023-03-01T07:44:58.923Z,89.31
2023-03-01T07:45:58.934Z,89.21
2023-03-01T07:46:58.902Z,89.06
2023-03-01T07:47:58.903Z,88.85
2023-03-01T07:48:58.873Z,88.75
2023-03-01T07:49:58.883Z,88.54
2023-03-01T07:50:58.859Z,88.96
2023-03-01T07:51:58.853Z,88.60
2023-03-01T07:52:58.857Z,88.39
2023-03-01T07:53:58.819Z,88.77
2023-03-01T07:54:58.825Z,88.49
2023-03-01T07:55:58.807Z,87.41
2023-03-01T07:56:58.797Z,88.31
2023-03-01T07:57:58.779Z,87.37
2023-03-01T07:58:58.777Z,86.91
2023-03-01T07:59:58.772Z,86.77
2023-03-01T08:00:58.757Z,86.41
2023-03-01T08:01:58.806Z,86.37
2023-03-01T08:02:58.731Z,84.66
2023-03-01T08:04:05.833Z,83.68
2023-03-01T08:04:58.699Z,82.50
2023-03-01T08:05:58.692Z,81.31
2023-03-01T08:06:58.686Z,80.54
2023-03-01T08:07:58.673Z,80.33
2023-03-01T08:08:58.661Z,79.29
2023-03-01T08:09:58.639Z,79.39
2023-03-01T08:10:58.649Z,78.97
2023-03-01T08:11:58.641Z,79.81
2023-03-01T08:12:58.613Z,80.09
2023-03-01T08:13:58.601Z,79.77
2023-03-01T08:14:58.589Z,79.57
2023-03-01T08:15:58.587Z,79.67
2023-03-01T08:16:58.688Z,79.25
2023-03-01T08:17:58.552Z,78.83
2023-03-01T08:18:58.560Z,78.83
2023-03-01T08:19:58.552Z,78.59
2023-03-01T08:20:58.533Z,78.07
2023-03-01T08:21:58.520Z,77.31
2023-03-01T08:22:58.501Z,77.27
2023-03-01T08:23:58.508Z,76.92
2023-03-01T08:24:58.478Z,76.47
2023-03-01T08:25:58.469Z,76.02
2023-03-01T08:26:58.474Z,74.98
2023-03-01T08:27:58.455Z,74.95
2023-03-01T08:28:58.435Z,74.84
2023-03-01T08:29:58.429Z,74.49
2023-03-01T08:30:58.418Z,74.18
2023-03-01T08:31:58.549Z,74.80
2023-03-01T08:32:58.537Z,74.08
2023-03-01T08:33:58.386Z,73.25
2023-03-01T08:34:58.391Z,74.08
2023-03-01T08:35:58.420Z,73.66
2023-03-01T08:36:58.358Z,73.53
2023-03-01T08:37:58.352Z,73.74
2023-03-01T08:38:58.338Z,73.32
2023-03-01T08:39:58.332Z,72.90
2023-03-01T08:40:58.302Z,72.38
2023-03-01T08:41:58.306Z,72.28
2023-03-01T08:42:58.288Z,72.17
2023-03-01T08:43:58.272Z,72.45
2023-03-01T08:44:58.266Z,72.69
2023-03-01T08:45:58.329Z,71.83
2023-03-01T08:46:58.244Z,71.73
2023-03-01T08:47:58.241Z,71.94
2023-03-01T08:48:58.216Z,71.91
2023-03-01T08:49:58.201Z,71.49
2023-03-01T08:50:58.195Z,71.62
2023-03-01T08:51:58.203Z,71.83
2023-03-01T08:52:58.183Z,72.01
2023-03-01T08:53:58.163Z,71.80
2023-03-01T08:54:58.157Z,71.39
2023-03-01T08:55:58.135Z,71.08
2023-03-01T08:56:58.149Z,71.04
2023-03-01T08:57:58.142Z,71.25
2023-03-01T08:58:58.111Z,70.42
2023-03-01T08:59:58.156Z,70.10
2023-03-01T09:00:58.093Z,70.14
2023-03-01T09:01:58.131Z,70.42
2023-03-01T09:02:58.081Z,70.52
2023-03-01T09:03:58.129Z,69.79
2023-03-01T09:04:58.047Z,69.24
2023-03-01T09:05:58.033Z,69.66
2023-03-01T09:06:58.022Z,70.18
2023-03-01T09:07:58.107Z,69.56
2023-03-01T09:08:58.001Z,69.42
2023-03-01T09:09:57.999Z,69.32
2023-03-01T09:10:57.985Z,69.21
2023-03-01T09:11:57.959Z,68.15
2023-03-01T09:12:57.988Z,68.43
2023-03-01T09:13:57.981Z,66.12
2023-03-01T09:14:57.938Z,66.32
2023-03-01T09:15:57.923Z,65.91
2023-03-01T09:16:57.977Z,66.42
2023-03-01T09:17:57.898Z,66.71
2023-03-01T09:18:57.905Z,64.23
2023-03-01T09:19:57.882Z,63.60
2023-03-01T09:20:57.875Z,64.20
2023-03-01T09:21:57.867Z,63.99
2023-03-01T09:22:57.846Z,64.40
2023-03-01T09:23:57.855Z,63.78
2023-03-01T09:24:57.836Z,63.89
2023-03-01T09:25:57.814Z,63.50
2023-03-01T09:26:57.810Z,63.68
2023-03-01T09:27:57.793Z,64.40
2023-03-01T09:28:57.796Z,64.48
2023-03-01T09:29:57.769Z,64.17
2023-03-01T09:30:57.877Z,64.14
2023-03-01T09:31:57.820Z,63.42
2023-03-01T09:32:57.750Z,62.59
2023-03-01T09:33:57.738Z,61.24
2023-03-01T09:34:57.723Z,61.76
2023-03-01T09:35:57.761Z,61.55
2023-03-01T09:36:57.738Z,60.73
2023-03-01T09:37:57.681Z,60.91
2023-03-01T09:38:57.674Z,62.12
2023-03-01T09:39:57.684Z,61.70
2023-03-01T09:40:57.675Z,59.84
2023-03-01T09:41:57.658Z,58.71
2023-03-01T09:42:57.639Z,59.15
2023-03-01T09:43:57.617Z,58.12
2023-03-01T09:44:57.620Z,57.78
2023-03-01T09:45:57.652Z,56.85
2023-03-01T09:46:57.598Z,56.62
2023-03-01T09:47:57.606Z,58.17
2023-03-01T09:48:57.570Z,59.61
2023-03-01T09:49:57.555Z,57.11
2023-03-01T09:50:57.547Z,56.70
2023-03-01T09:51:57.534Z,56.10
2023-03-01T09:52:57.566Z,55.41
2023-03-01T09:53:57.529Z,56.96
2023-03-01T09:54:59.616Z,56.44
2023-03-01T09:55:57.518Z,56.52
2023-03-01T09:56:57.478Z,56.59
2023-03-01T09:57:57.476Z,54.84
2023-03-01T09:58:57.476Z,52.68
2023-03-01T09:59:57.446Z,52.88
2023-03-01T10:00:57.434Z,53.19
2023-03-01T10:01:57.453Z,52.88
2023-03-01T10:02:57.417Z,52.26
2023-03-01T10:03:57.493Z,52.55
2023-03-01T10:04:57.493Z,52.98
2023-03-01T10:05:57.389Z,53.61
2023-03-01T10:06:57.370Z,54.71
2023-03-01T10:07:57.364Z,53.50
2023-03-01T10:08:57.352Z,52.68
2023-03-01T10:09:57.353Z,53.81
2023-03-01T10:10:57.345Z,54.22
2023-03-01T10:11:57.360Z,54.02
2023-03-01T10:12:57.311Z,54.74
2023-03-01T10:13:57.293Z,54.84
2023-03-01T10:14:57.277Z,54.22
2023-03-01T10:15:57.349Z,54.92
2023-03-01T10:16:57.284Z,54.61
2023-03-01T10:17:57.247Z,53.19
2023-03-01T10:18:57.240Z,52.88
2023-03-01T10:19:57.252Z,52.98
2023-03-01T10:20:57.211Z,54.43
2023-03-01T10:21:57.227Z,53.50
2023-03-01T10:22:57.199Z,54.10
2023-03-01T10:23:57.182Z,53.68
2023-03-01T10:24:57.162Z,53.48
2023-03-01T10:25:57.173Z,52.32
2023-03-01T10:26:57.161Z,52.61
2023-03-01T10:27:57.164Z,51.57
2023-03-01T10:28:57.125Z,51.37
2023-03-01T10:29:57.115Z,52.27
2023-03-01T10:30:57.192Z,52.37
2023-03-01T10:31:57.226Z,52.27
2023-03-01T10:32:57.101Z,51.76
2023-03-01T10:33:57.074Z,51.14
2023-03-01T10:34:57.058Z,51.86
2023-03-01T10:35:57.072Z,50.93
2023-03-01T10:36:57.028Z,51.55
2023-03-01T10:37:57.052Z,51.65
2023-03-01T10:38:57.015Z,51.45
2023-03-01T10:39:57.001Z,52.06
2023-03-01T10:40:56.987Z,52.06
2023-03-01T10:41:56.977Z,52.50
2023-03-01T10:46:44.585Z,51.68
2023-03-01T10:47:35.575Z,51.96
2023-03-01T10:48:35.539Z,51.65
2023-03-01T10:49:35.537Z,51.96
2023-03-01T10:50:35.533Z,51.01
2023-03-01T10:51:35.504Z,51.01
2023-03-01T10:52:35.516Z,51.63
2023-03-01T10:53:35.509Z,51.73
2023-03-01T10:54:35.473Z,49.90
2023-03-01T10:55:35.463Z,49.31
2023-03-01T10:56:35.449Z,48.69
2023-03-01T10:57:35.436Z,50.03
2023-03-01T10:58:35.449Z,50.96
2023-03-01T10:59:35.420Z,50.85
2023-03-01T11:00:35.404Z,51.14
2023-03-01T11:02:30.179Z,50.60
2023-03-01T11:03:30.015Z,49.37
2023-03-01T11:04:30.066Z,49.98
2023-03-01T11:05:29.980Z,48.96
2023-03-01T11:06:29.983Z,49.88
2023-03-01T11:07:29.958Z,48.75
2023-03-01T11:08:29.955Z,51.32
2023-03-01T11:09:29.930Z,49.78
2023-03-01T11:10:29.923Z,50.70
2023-03-01T11:11:30.271Z,49.88
2023-03-01T11:12:29.933Z,47.85
2023-03-01T11:13:29.892Z,48.26
2023-03-01T11:14:29.887Z,48.57
2023-03-01T11:15:29.920Z,48.98
2023-03-01T11:16:29.922Z,49.31
2023-03-01T11:17:30.605Z,49.93
2023-03-01T11:18:45.810Z,49.93
2023-03-01T11:19:30.848Z,49.21
2023-03-01T11:20:30.206Z,49.82
2023-03-01T11:21:30.117Z,48.98
2023-03-01T11:22:29.825Z,47.99
2023-03-01T11:23:29.785Z,49.02
2023-03-01T11:24:29.765Z,49.21
2023-03-01T11:25:29.765Z,49.31
2023-03-01T11:26:30.100Z,49.10
2023-03-01T11:27:29.739Z,50.93
2023-03-01T11:28:29.755Z,50.93
2023-03-01T11:29:34.858Z,49.60
2023-03-01T11:30:30.703Z,50.21
2023-03-01T11:31:30.247Z,50.50
2023-03-01T11:32:29.832Z,51.30
2023-03-01T11:33:29.713Z,50.86
2023-03-01T11:34:29.801Z,50.86
2023-03-01T11:35:29.654Z,49.24
2023-03-01T11:36:29.869Z,49.35
2023-03-01T11:37:29.626Z,49.65
2023-03-01T11:38:29.625Z,49.43
2023-03-01T11:39:29.591Z,48.39
2023-03-01T11:40:29.594Z,49.14
2023-03-01T11:41:29.582Z,50.58
2023-03-01T11:42:29.568Z,48.83
2023-03-01T11:43:29.547Z,49.44
2023-03-01T11:44:29.539Z,49.14
2023-03-01T11:45:29.529Z,48.42
2023-03-01T11:46:29.645Z,48.21
2023-03-01T11:47:29.663Z,49.44
2023-03-01T11:48:43.372Z,49.24
2023-03-01T11:49:30.479Z,49.73
2023-03-01T11:50:29.538Z,47.99
2023-03-01T11:51:29.680Z,48.52
2023-03-01T11:52:29.460Z,49.55
2023-03-01T11:53:29.435Z,50.06
2023-03-01T11:54:29.431Z,51.28
2023-03-01T11:55:29.439Z,49.52
2023-03-01T11:56:29.433Z,50.02
2023-03-01T11:57:42.297Z,49.09
2023-03-01T11:58:30.389Z,48.89
2023-03-01T11:59:29.421Z,50.32
2023-03-01T12:00:29.384Z,49.11
2023-03-01T12:01:29.365Z,48.39
2023-03-01T12:02:29.443Z,48.93
2023-03-01T12:03:29.337Z,49.35
2023-03-01T12:04:29.386Z,49.22
2023-03-01T12:05:29.303Z,48.71
2023-03-01T12:06:29.337Z,48.50
2023-03-01T12:07:29.283Z,49.94
2023-03-01T12:08:29.275Z,48.68
2023-03-01T12:09:29.262Z,47.86
2023-03-01T12:10:29.278Z,47.33
2023-03-01T12:11:29.284Z,47.53
2023-03-01T12:12:29.238Z,48.25
2023-03-01T12:13:29.228Z,46.81
2023-03-01T12:14:29.212Z,46.03
2023-03-01T12:15:29.197Z,47.27
2023-03-01T12:16:38.349Z,49.43
2023-03-01T12:17:30.185Z,48.50
2023-03-01T12:18:29.163Z,47.70
2023-03-01T12:19:29.150Z,47.80
2023-03-01T12:20:29.159Z,48.83
2023-03-01T12:21:29.394Z,49.04
2023-03-01T12:22:29.155Z,49.24
2023-03-01T12:23:29.112Z,49.76
2023-03-01T12:24:29.092Z,51.30
2023-03-01T12:25:29.081Z,49.16
2023-03-01T12:26:29.087Z,51.32
2023-03-01T12:27:29.057Z,49.57
2023-03-01T12:28:29.076Z,51.40
2023-03-01T12:29:29.037Z,50.58
2023-03-01T12:30:29.041Z,51.61
2023-03-01T12:31:29.248Z,51.42
2023-03-01T12:32:30.922Z,52.25
2023-03-01T12:33:29.024Z,52.22
2023-03-01T12:34:28.993Z,52.01
2023-03-01T12:35:28.984Z,51.89
2023-03-01T12:36:29.562Z,51.58
2023-03-01T12:37:28.951Z,50.58
2023-03-01T12:38:29.010Z,51.20
2023-03-01T12:39:28.944Z,52.43
2023-03-01T12:40:28.931Z,51.99
2023-03-01T12:41:29.409Z,50.56
2023-03-01T12:42:28.893Z,49.55
2023-03-01T12:43:28.916Z,51.40
2023-03-01T12:44:28.868Z,51.30
2023-03-01T12:45:29.010Z,48.63
2023-03-01T12:46:28.886Z,49.76
2023-03-01T12:47:28.853Z,49.55
2023-03-01T12:48:28.835Z,49.96
2023-03-01T12:49:28.836Z,49.73
2023-03-01T12:50:28.819Z,50.24
2023-03-01T12:51:28.799Z,49.81
2023-03-01T12:52:28.790Z,49.38
2023-03-01T12:53:28.791Z,47.14
2023-03-01T12:54:28.782Z,46.75
2023-03-01T12:55:28.771Z,46.44
2023-03-01T12:56:28.738Z,48.29